sensor_id;sensor_type;location;lat;lon;timestamp;temperature;humidity
9410;DHT22;4744;52.576;13.568;2023-04-08T00:01:43;5.30;26.90
9410;DHT22;4744;52.576;13.568;2023-04-08T00:04:10;5.30;28.10
9410;DHT22;4744;52.576;13.568;2023-04-08T00:06:38;5.30;28.30
9410;DHT22;4744;52.576;13.568;2023-04-08T00:09:06;5.30;29.10
9410;DHT22;4744;52.576;13.568;2023-04-08T00:11:32;5.30;26.00
9410;DHT22;4744;52.576;13.568;2023-04-08T00:14:01;5.30;27.90
9410;DHT22;4744;52.576;13.568;2023-04-08T00:16:30;5.30;28.60
9410;DHT22;4744;52.576;13.568;2023-04-08T00:18:57;5.30;31.00
9410;DHT22;4744;52.576;13.568;2023-04-08T00:21:24;5.30;27.30
9410;DHT22;4744;52.576;13.568;2023-04-08T00:23:51;5.30;32.00
9410;DHT22;4744;52.576;13.568;2023-04-08T00:26:18;5.30;29.90
9410;DHT22;4744;52.576;13.568;2023-04-08T00:28:45;5.30;28.10
9410;DHT22;4744;52.576;13.568;2023-04-08T00:31:12;5.30;30.10
9410;DHT22;4744;52.576;13.568;2023-04-08T00:33:40;5.30;33.20
9410;DHT22;4744;52.576;13.568;2023-04-08T00:36:07;5.30;32.60
9410;DHT22;4744;52.576;13.568;2023-04-08T00:38:34;5.30;30.30
9410;DHT22;4744;52.576;13.568;2023-04-08T00:41:01;5.30;31.00
9410;DHT22;4744;52.576;13.568;2023-04-08T00:43:28;5.30;31.80
9410;DHT22;4744;52.576;13.568;2023-04-08T00:45:55;5.30;35.10
9410;DHT22;4744;52.576;13.568;2023-04-08T00:48:22;5.30;33.90
9410;DHT22;4744;52.576;13.568;2023-04-08T00:50:51;5.30;38.20
9410;DHT22;4744;52.576;13.568;2023-04-08T00:53:18;5.30;35.80
9410;DHT22;4744;52.576;13.568;2023-04-08T00:55:45;5.30;36.40
9410;DHT22;4744;52.576;13.568;2023-04-08T00:58:13;5.30;38.10
9410;DHT22;4744;52.576;13.568;2023-04-08T01:00:43;5.30;37.50
9410;DHT22;4744;52.576;13.568;2023-04-08T01:03:15;5.30;38.10
9410;DHT22;4744;52.576;13.568;2023-04-08T01:05:50;5.30;37.90
9410;DHT22;4744;52.576;13.568;2023-04-08T01:08:26;5.30;41.90
9410;DHT22;4744;52.576;13.568;2023-04-08T01:10:58;5.30;40.20
9410;DHT22;4744;52.576;13.568;2023-04-08T01:13:30;5.30;40.90
9410;DHT22;4744;52.576;13.568;2023-04-08T01:16:00;5.30;43.90
9410;DHT22;4744;52.576;13.568;2023-04-08T01:18:28;5.30;42.30
9410;DHT22;4744;52.576;13.568;2023-04-08T01:20:57;5.30;45.80
9410;DHT22;4744;52.576;13.568;2023-04-08T01:23:30;5.30;45.30
9410;DHT22;4744;52.576;13.568;2023-04-08T01:26:00;5.30;44.10
9410;DHT22;4744;52.576;13.568;2023-04-08T01:28:28;5.30;48.90
9410;DHT22;4744;52.576;13.568;2023-04-08T01:30:58;5.30;46.70
9410;DHT22;4744;52.576;13.568;2023-04-08T01:33:27;5.30;47.40
9410;DHT22;4744;52.576;13.568;2023-04-08T01:35:54;5.30;51.30
9410;DHT22;4744;52.576;13.568;2023-04-08T01:38:23;5.30;45.80
9410;DHT22;4744;52.576;13.568;2023-04-08T01:40:51;5.30;50.30
9410;DHT22;4744;52.576;13.568;2023-04-08T01:43:20;5.40;47.00
9410;DHT22;4744;52.576;13.568;2023-04-08T01:45:47;5.30;51.00
9410;DHT22;4744;52.576;13.568;2023-04-08T01:48:15;5.30;49.20
9410;DHT22;4744;52.576;13.568;2023-04-08T01:50:43;5.40;49.00
9410;DHT22;4744;52.576;13.568;2023-04-08T01:53:11;5.40;47.90
9410;DHT22;4744;52.576;13.568;2023-04-08T01:55:39;5.40;51.80
9410;DHT22;4744;52.576;13.568;2023-04-08T01:58:08;5.40;45.30
9410;DHT22;4744;52.576;13.568;2023-04-08T02:00:39;5.40;48.10
9410;DHT22;4744;52.576;13.568;2023-04-08T02:03:09;5.40;50.00
9410;DHT22;4744;52.576;13.568;2023-04-08T02:05:38;5.40;48.30
9410;DHT22;4744;52.576;13.568;2023-04-08T02:08:05;5.40;54.30
9410;DHT22;4744;52.576;13.568;2023-04-08T02:10:32;5.40;51.70
9410;DHT22;4744;52.576;13.568;2023-04-08T02:12:59;5.40;43.50
9410;DHT22;4744;52.576;13.568;2023-04-08T02:15:28;5.40;44.30
9410;DHT22;4744;52.576;13.568;2023-04-08T02:18:06;5.40;44.90
9410;DHT22;4744;52.576;13.568;2023-04-08T02:20:37;5.40;43.50
9410;DHT22;4744;52.576;13.568;2023-04-08T02:23:09;5.40;41.70
9410;DHT22;4744;52.576;13.568;2023-04-08T02:25:39;5.40;45.30
9410;DHT22;4744;52.576;13.568;2023-04-08T02:28:10;5.40;43.00
9410;DHT22;4744;52.576;13.568;2023-04-08T02:30:41;5.40;50.70
9410;DHT22;4744;52.576;13.568;2023-04-08T02:33:10;5.40;48.00
9410;DHT22;4744;52.576;13.568;2023-04-08T02:35:40;5.40;45.80
9410;DHT22;4744;52.576;13.568;2023-04-08T02:38:08;5.40;48.30
9410;DHT22;4744;52.576;13.568;2023-04-08T02:40:35;5.40;49.40
9410;DHT22;4744;52.576;13.568;2023-04-08T02:43:02;5.40;48.80
9410;DHT22;4744;52.576;13.568;2023-04-08T02:45:31;5.40;49.10
9410;DHT22;4744;52.576;13.568;2023-04-08T02:47:59;5.40;53.60
9410;DHT22;4744;52.576;13.568;2023-04-08T02:50:27;5.40;40.60
9410;DHT22;4744;52.576;13.568;2023-04-08T02:52:55;5.40;43.50
9410;DHT22;4744;52.576;13.568;2023-04-08T02:55:22;5.40;49.70
9410;DHT22;4744;52.576;13.568;2023-04-08T02:57:49;5.40;53.50
9410;DHT22;4744;52.576;13.568;2023-04-08T03:00:16;5.40;39.30
9410;DHT22;4744;52.576;13.568;2023-04-08T03:02:43;5.40;52.40
9410;DHT22;4744;52.576;13.568;2023-04-08T03:05:10;5.40;49.90
9410;DHT22;4744;52.576;13.568;2023-04-08T03:07:39;5.40;47.10
9410;DHT22;4744;52.576;13.568;2023-04-08T03:10:07;5.40;50.70
9410;DHT22;4744;52.576;13.568;2023-04-08T03:12:34;5.40;52.70
9410;DHT22;4744;52.576;13.568;2023-04-08T03:15:01;5.40;49.50
9410;DHT22;4744;52.576;13.568;2023-04-08T03:17:28;5.40;61.50
9410;DHT22;4744;52.576;13.568;2023-04-08T03:19:57;5.40;48.40
9410;DHT22;4744;52.576;13.568;2023-04-08T03:22:24;5.40;48.50
9410;DHT22;4744;52.576;13.568;2023-04-08T03:24:52;5.40;50.90
9410;DHT22;4744;52.576;13.568;2023-04-08T03:27:19;5.50;47.20
9410;DHT22;4744;52.576;13.568;2023-04-08T03:29:46;5.40;52.60
9410;DHT22;4744;52.576;13.568;2023-04-08T03:32:13;5.40;55.90
9410;DHT22;4744;52.576;13.568;2023-04-08T03:34:40;5.40;49.20
9410;DHT22;4744;52.576;13.568;2023-04-08T03:37:07;5.40;36.80
9410;DHT22;4744;52.576;13.568;2023-04-08T03:39:34;5.40;56.30
9410;DHT22;4744;52.576;13.568;2023-04-08T03:42:02;5.40;35.60
9410;DHT22;4744;52.576;13.568;2023-04-08T03:44:29;5.40;38.80
9410;DHT22;4744;52.576;13.568;2023-04-08T03:46:56;5.40;37.00
9410;DHT22;4744;52.576;13.568;2023-04-08T03:49:23;5.50;38.60
9410;DHT22;4744;52.576;13.568;2023-04-08T03:51:50;5.40;38.70
9410;DHT22;4744;52.576;13.568;2023-04-08T03:54:17;5.40;57.90
9410;DHT22;4744;52.576;13.568;2023-04-08T03:56:44;5.50;56.60
9410;DHT22;4744;52.576;13.568;2023-04-08T03:59:12;5.40;39.10
9410;DHT22;4744;52.576;13.568;2023-04-08T04:01:39;5.50;54.60
9410;DHT22;4744;52.576;13.568;2023-04-08T04:04:06;5.40;55.70
9410;DHT22;4744;52.576;13.568;2023-04-08T04:06:33;5.50;53.90
9410;DHT22;4744;52.576;13.568;2023-04-08T04:09:00;5.50;57.00
9410;DHT22;4744;52.576;13.568;2023-04-08T04:11:27;5.50;57.80
9410;DHT22;4744;52.576;13.568;2023-04-08T04:13:54;5.50;54.00
9410;DHT22;4744;52.576;13.568;2023-04-08T04:16:22;5.50;55.20
9410;DHT22;4744;52.576;13.568;2023-04-08T04:18:49;5.50;60.60
9410;DHT22;4744;52.576;13.568;2023-04-08T04:21:17;5.50;53.50
9410;DHT22;4744;52.576;13.568;2023-04-08T04:23:44;5.50;53.40
9410;DHT22;4744;52.576;13.568;2023-04-08T04:26:11;5.50;57.40
9410;DHT22;4744;52.576;13.568;2023-04-08T04:28:39;5.50;53.80
9410;DHT22;4744;52.576;13.568;2023-04-08T04:31:06;5.50;58.80
9410;DHT22;4744;52.576;13.568;2023-04-08T04:33:34;5.50;56.20
9410;DHT22;4744;52.576;13.568;2023-04-08T04:36:01;5.50;60.10
9410;DHT22;4744;52.576;13.568;2023-04-08T04:38:28;5.50;51.80
9410;DHT22;4744;52.576;13.568;2023-04-08T04:40:55;5.50;55.50
9410;DHT22;4744;52.576;13.568;2023-04-08T04:43:23;5.50;56.10
9410;DHT22;4744;52.576;13.568;2023-04-08T04:45:50;5.50;44.00
9410;DHT22;4744;52.576;13.568;2023-04-08T04:48:17;5.50;55.30
9410;DHT22;4744;52.576;13.568;2023-04-08T04:50:53;5.50;60.50
9410;DHT22;4744;52.576;13.568;2023-04-08T04:53:20;5.50;63.60
9410;DHT22;4744;52.576;13.568;2023-04-08T04:55:47;5.50;59.00
9410;DHT22;4744;52.576;13.568;2023-04-08T04:58:14;5.50;60.40
9410;DHT22;4744;52.576;13.568;2023-04-08T05:00:41;5.50;48.40
9410;DHT22;4744;52.576;13.568;2023-04-08T05:03:08;5.50;54.50
9410;DHT22;4744;52.576;13.568;2023-04-08T05:05:35;5.50;54.30
9410;DHT22;4744;52.576;13.568;2023-04-08T05:08:03;5.50;61.10
9410;DHT22;4744;52.576;13.568;2023-04-08T05:10:31;5.50;48.30
9410;DHT22;4744;52.576;13.568;2023-04-08T05:12:59;5.50;55.00
9410;DHT22;4744;52.576;13.568;2023-04-08T05:15:26;5.50;60.90
9410;DHT22;4744;52.576;13.568;2023-04-08T05:17:53;5.50;55.00
9410;DHT22;4744;52.576;13.568;2023-04-08T05:20:20;5.50;56.20
9410;DHT22;4744;52.576;13.568;2023-04-08T05:22:48;5.50;60.90
9410;DHT22;4744;52.576;13.568;2023-04-08T05:25:16;5.50;55.10
9410;DHT22;4744;52.576;13.568;2023-04-08T05:27:43;5.50;50.30
9410;DHT22;4744;52.576;13.568;2023-04-08T05:30:11;5.50;50.60
9410;DHT22;4744;52.576;13.568;2023-04-08T05:32:38;5.60;54.20
9410;DHT22;4744;52.576;13.568;2023-04-08T05:35:06;5.60;59.70
9410;DHT22;4744;52.576;13.568;2023-04-08T05:37:34;5.60;56.60
9410;DHT22;4744;52.576;13.568;2023-04-08T05:40:01;5.60;56.60
9410;DHT22;4744;52.576;13.568;2023-04-08T05:42:29;5.60;60.00
9410;DHT22;4744;52.576;13.568;2023-04-08T05:44:56;5.60;58.50
9410;DHT22;4744;52.576;13.568;2023-04-08T05:47:23;5.70;49.10
9410;DHT22;4744;52.576;13.568;2023-04-08T05:49:50;5.70;61.00
9410;DHT22;4744;52.576;13.568;2023-04-08T05:52:18;5.70;58.90
9410;DHT22;4744;52.576;13.568;2023-04-08T05:54:45;5.70;61.00
9410;DHT22;4744;52.576;13.568;2023-04-08T05:57:12;5.70;58.00
9410;DHT22;4744;52.576;13.568;2023-04-08T05:59:40;5.80;54.40
9410;DHT22;4744;52.576;13.568;2023-04-08T06:02:07;5.70;56.80
9410;DHT22;4744;52.576;13.568;2023-04-08T06:04:34;5.70;54.60
9410;DHT22;4744;52.576;13.568;2023-04-08T06:07:01;5.80;59.20
9410;DHT22;4744;52.576;13.568;2023-04-08T06:09:29;5.80;47.10
9410;DHT22;4744;52.576;13.568;2023-04-08T06:11:56;5.80;54.60
9410;DHT22;4744;52.576;13.568;2023-04-08T06:14:23;5.80;57.30
9410;DHT22;4744;52.576;13.568;2023-04-08T06:16:51;5.90;60.70
9410;DHT22;4744;52.576;13.568;2023-04-08T06:19:19;5.90;46.50
9410;DHT22;4744;52.576;13.568;2023-04-08T06:21:46;5.90;59.40
9410;DHT22;4744;52.576;13.568;2023-04-08T06:24:13;5.90;59.70
9410;DHT22;4744;52.576;13.568;2023-04-08T06:26:39;6.00;57.20
9410;DHT22;4744;52.576;13.568;2023-04-08T06:29:07;6.00;55.50
9410;DHT22;4744;52.576;13.568;2023-04-08T06:31:33;6.00;59.50
9410;DHT22;4744;52.576;13.568;2023-04-08T06:34:02;6.10;49.60
9410;DHT22;4744;52.576;13.568;2023-04-08T06:36:29;6.10;49.30
9410;DHT22;4744;52.576;13.568;2023-04-08T06:38:56;6.20;51.40
9410;DHT22;4744;52.576;13.568;2023-04-08T06:41:23;6.20;54.30
9410;DHT22;4744;52.576;13.568;2023-04-08T06:43:50;6.30;51.10
9410;DHT22;4744;52.576;13.568;2023-04-08T06:46:16;6.20;59.50
9410;DHT22;4744;52.576;13.568;2023-04-08T06:48:43;6.20;48.90
9410;DHT22;4744;52.576;13.568;2023-04-08T06:51:12;6.30;50.60
9410;DHT22;4744;52.576;13.568;2023-04-08T06:53:39;6.30;43.30
9410;DHT22;4744;52.576;13.568;2023-04-08T06:56:06;6.40;45.10
9410;DHT22;4744;52.576;13.568;2023-04-08T06:58:32;6.40;43.60
9410;DHT22;4744;52.576;13.568;2023-04-08T07:00:59;6.40;36.80
9410;DHT22;4744;52.576;13.568;2023-04-08T07:03:27;6.50;26.20
9410;DHT22;4744;52.576;13.568;2023-04-08T07:05:54;6.50;27.90
9410;DHT22;4744;52.576;13.568;2023-04-08T07:08:23;6.50;26.00
9410;DHT22;4744;52.576;13.568;2023-04-08T07:10:51;6.60;21.50
9410;DHT22;4744;52.576;13.568;2023-04-08T07:13:18;6.60;22.20
9410;DHT22;4744;52.576;13.568;2023-04-08T07:15:45;6.70;14.60
9410;DHT22;4744;52.576;13.568;2023-04-08T07:18:12;6.70;17.70
9410;DHT22;4744;52.576;13.568;2023-04-08T07:20:39;6.80;10.40
9410;DHT22;4744;52.576;13.568;2023-04-08T07:23:06;6.80;7.90
9410;DHT22;4744;52.576;13.568;2023-04-08T07:25:35;6.80;1.30
9410;DHT22;4744;52.576;13.568;2023-04-08T07:28:02;6.80;1.00
9410;DHT22;4744;52.576;13.568;2023-04-08T07:30:29;6.80;1.00
9410;DHT22;4744;52.576;13.568;2023-04-08T07:32:55;6.90;1.00
9410;DHT22;4744;52.576;13.568;2023-04-08T07:35:23;6.90;1.00
9410;DHT22;4744;52.576;13.568;2023-04-08T07:37:50;6.90;1.00
9410;DHT22;4744;52.576;13.568;2023-04-08T07:40:17;7.00;1.00
9410;DHT22;4744;52.576;13.568;2023-04-08T07:42:46;7.00;1.00
9410;DHT22;4744;52.576;13.568;2023-04-08T07:45:14;7.10;1.00
9410;DHT22;4744;52.576;13.568;2023-04-08T07:47:41;7.10;1.00
9410;DHT22;4744;52.576;13.568;2023-04-08T07:50:08;7.20;1.00
9410;DHT22;4744;52.576;13.568;2023-04-08T07:52:36;7.20;1.00
9410;DHT22;4744;52.576;13.568;2023-04-08T07:55:04;7.30;1.00
9410;DHT22;4744;52.576;13.568;2023-04-08T07:57:31;7.40;1.00
9410;DHT22;4744;52.576;13.568;2023-04-08T07:59:59;7.60;1.00
9410;DHT22;4744;52.576;13.568;2023-04-08T08:02:26;7.70;1.00
9410;DHT22;4744;52.576;13.568;2023-04-08T08:04:53;7.80;1.00
9410;DHT22;4744;52.576;13.568;2023-04-08T08:07:20;7.90;1.00
9410;DHT22;4744;52.576;13.568;2023-04-08T08:09:47;8.00;1.00
9410;DHT22;4744;52.576;13.568;2023-04-08T08:12:14;8.00;1.00
9410;DHT22;4744;52.576;13.568;2023-04-08T08:14:41;8.10;1.00
9410;DHT22;4744;52.576;13.568;2023-04-08T08:17:09;8.20;1.00
9410;DHT22;4744;52.576;13.568;2023-04-08T08:19:37;8.20;1.00
9410;DHT22;4744;52.576;13.568;2023-04-08T08:22:04;8.20;1.00
9410;DHT22;4744;52.576;13.568;2023-04-08T08:24:31;8.20;1.00
9410;DHT22;4744;52.576;13.568;2023-04-08T08:26:57;8.20;1.00
9410;DHT22;4744;52.576;13.568;2023-04-08T08:29:24;8.20;1.00
9410;DHT22;4744;52.576;13.568;2023-04-08T08:31:51;8.10;1.00
9410;DHT22;4744;52.576;13.568;2023-04-08T08:34:20;8.10;1.00
9410;DHT22;4744;52.576;13.568;2023-04-08T08:36:46;8.10;1.00
9410;DHT22;4744;52.576;13.568;2023-04-08T08:39:13;8.20;1.00
9410;DHT22;4744;52.576;13.568;2023-04-08T08:41:40;8.20;1.00
9410;DHT22;4744;52.576;13.568;2023-04-08T08:44:07;8.20;1.00
9410;DHT22;4744;52.576;13.568;2023-04-08T08:46:35;8.20;1.00
9410;DHT22;4744;52.576;13.568;2023-04-08T08:49:02;8.20;1.00
9410;DHT22;4744;52.576;13.568;2023-04-08T08:51:31;8.30;1.00
9410;DHT22;4744;52.576;13.568;2023-04-08T08:54:01;8.40;1.00
9410;DHT22;4744;52.576;13.568;2023-04-08T08:56:28;8.40;1.00
9410;DHT22;4744;52.576;13.568;2023-04-08T08:58:55;8.50;1.00
9410;DHT22;4744;52.576;13.568;2023-04-08T09:01:29;8.50;1.00
9410;DHT22;4744;52.576;13.568;2023-04-08T09:04:12;8.50;1.00
9410;DHT22;4744;52.576;13.568;2023-04-08T09:06:43;8.60;1.00
9410;DHT22;4744;52.576;13.568;2023-04-08T09:09:11;8.60;1.00
9410;DHT22;4744;52.576;13.568;2023-04-08T09:11:39;8.70;1.00
9410;DHT22;4744;52.576;13.568;2023-04-08T09:14:19;8.60;1.00
9410;DHT22;4744;52.576;13.568;2023-04-08T09:16:47;8.60;1.00
9410;DHT22;4744;52.576;13.568;2023-04-08T09:19:14;8.60;1.00
9410;DHT22;4744;52.576;13.568;2023-04-08T09:21:42;8.60;1.00
9410;DHT22;4744;52.576;13.568;2023-04-08T09:24:27;8.60;1.00
9410;DHT22;4744;52.576;13.568;2023-04-08T09:26:54;8.60;1.00
9410;DHT22;4744;52.576;13.568;2023-04-08T09:29:23;8.60;1.00
9410;DHT22;4744;52.576;13.568;2023-04-08T09:31:53;8.60;1.00
9410;DHT22;4744;52.576;13.568;2023-04-08T09:34:21;8.50;1.00
9410;DHT22;4744;52.576;13.568;2023-04-08T09:36:50;8.50;1.00
9410;DHT22;4744;52.576;13.568;2023-04-08T09:39:17;8.50;1.00
9410;DHT22;4744;52.576;13.568;2023-04-08T09:41:46;8.50;1.00
9410;DHT22;4744;52.576;13.568;2023-04-08T09:44:14;8.50;1.00
9410;DHT22;4744;52.576;13.568;2023-04-08T09:46:55;8.70;1.00
9410;DHT22;4744;52.576;13.568;2023-04-08T09:49:28;9.00;1.00
9410;DHT22;4744;52.576;13.568;2023-04-08T09:52:06;9.20;1.00
9410;DHT22;4744;52.576;13.568;2023-04-08T09:54:40;9.30;1.00
9410;DHT22;4744;52.576;13.568;2023-04-08T09:57:09;9.50;1.00
9410;DHT22;4744;52.576;13.568;2023-04-08T09:59:38;10.00;1.00
9410;DHT22;4744;52.576;13.568;2023-04-08T10:02:09;10.40;1.00
9410;DHT22;4744;52.576;13.568;2023-04-08T10:04:38;10.60;1.00
9410;DHT22;4744;52.576;13.568;2023-04-08T10:07:08;10.80;1.00
9410;DHT22;4744;52.576;13.568;2023-04-08T10:09:35;10.90;1.00
9410;DHT22;4744;52.576;13.568;2023-04-08T10:12:06;10.80;1.00
9410;DHT22;4744;52.576;13.568;2023-04-08T10:14:33;10.80;1.00
9410;DHT22;4744;52.576;13.568;2023-04-08T10:17:25;10.70;1.00
9410;DHT22;4744;52.576;13.568;2023-04-08T10:19:53;10.50;1.00
9410;DHT22;4744;52.576;13.568;2023-04-08T10:22:46;10.50;1.00
9410;DHT22;4744;52.576;13.568;2023-04-08T10:25:30;10.40;1.00
9410;DHT22;4744;52.576;13.568;2023-04-08T10:27:58;10.30;1.00
9410;DHT22;4744;52.576;13.568;2023-04-08T10:30:41;10.40;1.00
9410;DHT22;4744;52.576;13.568;2023-04-08T10:33:12;10.40;1.00
9410;DHT22;4744;52.576;13.568;2023-04-08T10:35:42;10.50;1.00
9410;DHT22;4744;52.576;13.568;2023-04-08T10:38:12;10.50;1.00
9410;DHT22;4744;52.576;13.568;2023-04-08T10:40:40;10.50;1.00
9410;DHT22;4744;52.576;13.568;2023-04-08T10:43:08;10.60;1.00
9410;DHT22;4744;52.576;13.568;2023-04-08T10:45:36;10.90;1.00
9410;DHT22;4744;52.576;13.568;2023-04-08T10:48:18;11.20;1.00
9410;DHT22;4744;52.576;13.568;2023-04-08T10:50:53;11.50;1.00
9410;DHT22;4744;52.576;13.568;2023-04-08T10:53:26;11.60;1.00
9410;DHT22;4744;52.576;13.568;2023-04-08T10:55:54;11.50;1.00
9410;DHT22;4744;52.576;13.568;2023-04-08T10:58:21;11.40;1.00
9410;DHT22;4744;52.576;13.568;2023-04-08T11:00:47;11.40;1.00
9410;DHT22;4744;52.576;13.568;2023-04-08T11:03:14;11.20;1.00
9410;DHT22;4744;52.576;13.568;2023-04-08T11:05:41;11.30;1.00
9410;DHT22;4744;52.576;13.568;2023-04-08T11:08:08;11.50;1.00
9410;DHT22;4744;52.576;13.568;2023-04-08T11:10:37;11.40;1.00
9410;DHT22;4744;52.576;13.568;2023-04-08T11:13:08;11.40;1.00
9410;DHT22;4744;52.576;13.568;2023-04-08T11:15:35;11.30;1.00
9410;DHT22;4744;52.576;13.568;2023-04-08T11:18:02;11.30;1.00
9410;DHT22;4744;52.576;13.568;2023-04-08T11:20:31;11.20;1.00
9410;DHT22;4744;52.576;13.568;2023-04-08T11:23:00;11.10;1.00
9410;DHT22;4744;52.576;13.568;2023-04-08T11:25:28;11.10;1.00
9410;DHT22;4744;52.576;13.568;2023-04-08T11:27:57;11.00;1.00
9410;DHT22;4744;52.576;13.568;2023-04-08T11:30:25;11.00;1.00
9410;DHT22;4744;52.576;13.568;2023-04-08T11:32:52;10.90;1.00
9410;DHT22;4744;52.576;13.568;2023-04-08T11:35:20;10.90;1.00
9410;DHT22;4744;52.576;13.568;2023-04-08T11:37:47;10.90;1.00
9410;DHT22;4744;52.576;13.568;2023-04-08T11:40:20;11.00;1.00
9410;DHT22;4744;52.576;13.568;2023-04-08T11:42:48;11.10;1.00
9410;DHT22;4744;52.576;13.568;2023-04-08T11:45:18;11.20;1.00
9410;DHT22;4744;52.576;13.568;2023-04-08T11:47:46;11.40;1.00
9410;DHT22;4744;52.576;13.568;2023-04-08T11:50:23;11.50;1.00
9410;DHT22;4744;52.576;13.568;2023-04-08T11:52:52;11.70;1.00
9410;DHT22;4744;52.576;13.568;2023-04-08T11:55:24;11.60;1.00
9410;DHT22;4744;52.576;13.568;2023-04-08T11:57:52;11.60;1.00
9410;DHT22;4744;52.576;13.568;2023-04-08T12:00:21;11.60;1.00
9410;DHT22;4744;52.576;13.568;2023-04-08T12:02:48;11.60;1.00
9410;DHT22;4744;52.576;13.568;2023-04-08T12:05:17;11.70;1.00
9410;DHT22;4744;52.576;13.568;2023-04-08T12:07:44;11.80;1.00
9410;DHT22;4744;52.576;13.568;2023-04-08T12:10:11;12.00;1.00
9410;DHT22;4744;52.576;13.568;2023-04-08T12:12:40;12.30;1.00
9410;DHT22;4744;52.576;13.568;2023-04-08T12:15:08;12.40;1.00
9410;DHT22;4744;52.576;13.568;2023-04-08T12:17:36;12.60;1.00
9410;DHT22;4744;52.576;13.568;2023-04-08T12:20:04;12.70;1.00
9410;DHT22;4744;52.576;13.568;2023-04-08T12:22:32;12.70;1.00
9410;DHT22;4744;52.576;13.568;2023-04-08T12:24:59;12.60;1.00
9410;DHT22;4744;52.576;13.568;2023-04-08T12:27:27;12.40;1.00
9410;DHT22;4744;52.576;13.568;2023-04-08T12:29:54;12.30;1.00
9410;DHT22;4744;52.576;13.568;2023-04-08T12:32:22;12.30;1.00
9410;DHT22;4744;52.576;13.568;2023-04-08T12:34:51;12.30;1.00
9410;DHT22;4744;52.576;13.568;2023-04-08T12:37:18;12.30;1.00
9410;DHT22;4744;52.576;13.568;2023-04-08T12:39:46;12.30;1.00
9410;DHT22;4744;52.576;13.568;2023-04-08T12:42:14;12.30;1.00
9410;DHT22;4744;52.576;13.568;2023-04-08T12:44:41;12.40;1.00
9410;DHT22;4744;52.576;13.568;2023-04-08T12:47:07;12.60;1.00
9410;DHT22;4744;52.576;13.568;2023-04-08T12:49:34;12.90;1.00
9410;DHT22;4744;52.576;13.568;2023-04-08T12:52:03;13.10;1.00
9410;DHT22;4744;52.576;13.568;2023-04-08T12:54:30;13.40;1.00
9410;DHT22;4744;52.576;13.568;2023-04-08T12:56:57;13.70;1.00
9410;DHT22;4744;52.576;13.568;2023-04-08T12:59:24;13.70;1.00
9410;DHT22;4744;52.576;13.568;2023-04-08T13:01:51;13.60;1.00
9410;DHT22;4744;52.576;13.568;2023-04-08T13:04:18;13.60;1.00
9410;DHT22;4744;52.576;13.568;2023-04-08T13:06:45;13.70;1.00
9410;DHT22;4744;52.576;13.568;2023-04-08T13:09:13;13.70;1.00
9410;DHT22;4744;52.576;13.568;2023-04-08T13:11:40;13.50;1.00
9410;DHT22;4744;52.576;13.568;2023-04-08T13:14:07;13.50;1.00
9410;DHT22;4744;52.576;13.568;2023-04-08T13:16:34;13.60;1.00
9410;DHT22;4744;52.576;13.568;2023-04-08T13:19:01;13.60;1.00
9410;DHT22;4744;52.576;13.568;2023-04-08T13:21:28;13.60;1.00
9410;DHT22;4744;52.576;13.568;2023-04-08T13:23:55;13.80;1.00
9410;DHT22;4744;52.576;13.568;2023-04-08T13:26:24;14.00;1.00
9410;DHT22;4744;52.576;13.568;2023-04-08T13:28:51;14.30;1.00
9410;DHT22;4744;52.576;13.568;2023-04-08T13:31:17;14.20;1.00
9410;DHT22;4744;52.576;13.568;2023-04-08T13:33:45;14.00;1.00
9410;DHT22;4744;52.576;13.568;2023-04-08T13:36:11;13.90;1.00
9410;DHT22;4744;52.576;13.568;2023-04-08T13:38:38;13.80;1.00
9410;DHT22;4744;52.576;13.568;2023-04-08T13:41:05;13.70;1.00
9410;DHT22;4744;52.576;13.568;2023-04-08T13:43:34;13.60;1.00
9410;DHT22;4744;52.576;13.568;2023-04-08T13:46:00;13.50;1.00
9410;DHT22;4744;52.576;13.568;2023-04-08T13:48:27;13.50;1.00
9410;DHT22;4744;52.576;13.568;2023-04-08T13:50:54;13.50;1.00
9410;DHT22;4744;52.576;13.568;2023-04-08T13:53:21;13.70;1.00
9410;DHT22;4744;52.576;13.568;2023-04-08T13:55:48;13.80;1.00
9410;DHT22;4744;52.576;13.568;2023-04-08T13:58:19;13.70;1.00
9410;DHT22;4744;52.576;13.568;2023-04-08T14:00:48;13.70;1.00
9410;DHT22;4744;52.576;13.568;2023-04-08T14:03:15;13.80;1.00
9410;DHT22;4744;52.576;13.568;2023-04-08T14:05:42;13.90;1.00
9410;DHT22;4744;52.576;13.568;2023-04-08T14:08:09;14.10;1.00
9410;DHT22;4744;52.576;13.568;2023-04-08T14:10:38;14.20;1.00
9410;DHT22;4744;52.576;13.568;2023-04-08T14:13:05;14.30;1.00
9410;DHT22;4744;52.576;13.568;2023-04-08T14:15:32;14.30;1.00
9410;DHT22;4744;52.576;13.568;2023-04-08T14:18:00;14.50;1.00
9410;DHT22;4744;52.576;13.568;2023-04-08T14:20:27;14.50;1.00
9410;DHT22;4744;52.576;13.568;2023-04-08T14:22:54;14.40;1.00
9410;DHT22;4744;52.576;13.568;2023-04-08T14:25:21;14.20;1.00
9410;DHT22;4744;52.576;13.568;2023-04-08T14:27:48;14.00;1.00
9410;DHT22;4744;52.576;13.568;2023-04-08T14:30:15;13.90;1.00
9410;DHT22;4744;52.576;13.568;2023-04-08T14:32:42;13.80;1.00
9410;DHT22;4744;52.576;13.568;2023-04-08T14:35:10;13.80;1.00
9410;DHT22;4744;52.576;13.568;2023-04-08T14:37:37;13.90;1.00
9410;DHT22;4744;52.576;13.568;2023-04-08T14:40:06;13.80;1.00
9410;DHT22;4744;52.576;13.568;2023-04-08T14:42:33;13.80;1.00
9410;DHT22;4744;52.576;13.568;2023-04-08T14:45:00;13.80;1.00
9410;DHT22;4744;52.576;13.568;2023-04-08T14:47:27;13.90;1.00
9410;DHT22;4744;52.576;13.568;2023-04-08T14:49:55;14.00;1.00
9410;DHT22;4744;52.576;13.568;2023-04-08T14:52:23;13.90;1.00
9410;DHT22;4744;52.576;13.568;2023-04-08T14:54:50;14.00;1.00
9410;DHT22;4744;52.576;13.568;2023-04-08T14:57:18;14.00;1.00
9410;DHT22;4744;52.576;13.568;2023-04-08T14:59:45;14.10;1.00
9410;DHT22;4744;52.576;13.568;2023-04-08T15:02:12;14.10;1.00
9410;DHT22;4744;52.576;13.568;2023-04-08T15:04:39;14.10;1.00
9410;DHT22;4744;52.576;13.568;2023-04-08T15:07:06;14.10;1.00
9410;DHT22;4744;52.576;13.568;2023-04-08T15:09:34;14.10;1.00
9410;DHT22;4744;52.576;13.568;2023-04-08T15:12:01;14.20;1.00
9410;DHT22;4744;52.576;13.568;2023-04-08T15:14:28;14.20;1.00
9410;DHT22;4744;52.576;13.568;2023-04-08T15:16:55;14.20;1.00
9410;DHT22;4744;52.576;13.568;2023-04-08T15:19:22;14.20;1.00
9410;DHT22;4744;52.576;13.568;2023-04-08T15:21:49;14.30;1.00
9410;DHT22;4744;52.576;13.568;2023-04-08T15:24:16;14.30;1.00
9410;DHT22;4744;52.576;13.568;2023-04-08T15:26:45;14.30;1.00
9410;DHT22;4744;52.576;13.568;2023-04-08T15:29:12;14.20;1.00
9410;DHT22;4744;52.576;13.568;2023-04-08T15:31:39;14.10;1.00
9410;DHT22;4744;52.576;13.568;2023-04-08T15:34:06;14.10;1.00
9410;DHT22;4744;52.576;13.568;2023-04-08T15:36:33;14.10;1.00
9410;DHT22;4744;52.576;13.568;2023-04-08T15:39:02;14.10;1.00
9410;DHT22;4744;52.576;13.568;2023-04-08T15:41:29;14.10;1.00
9410;DHT22;4744;52.576;13.568;2023-04-08T15:43:58;14.00;1.00
9410;DHT22;4744;52.576;13.568;2023-04-08T15:46:25;13.90;1.00
9410;DHT22;4744;52.576;13.568;2023-04-08T15:48:52;13.80;1.00
9410;DHT22;4744;52.576;13.568;2023-04-08T15:51:19;13.60;1.00
9410;DHT22;4744;52.576;13.568;2023-04-08T15:53:46;13.60;1.00
9410;DHT22;4744;52.576;13.568;2023-04-08T15:56:15;13.60;1.00
9410;DHT22;4744;52.576;13.568;2023-04-08T15:58:42;13.60;1.00
9410;DHT22;4744;52.576;13.568;2023-04-08T16:01:11;13.60;1.00
9410;DHT22;4744;52.576;13.568;2023-04-08T16:03:38;13.70;1.00
9410;DHT22;4744;52.576;13.568;2023-04-08T16:06:06;13.80;1.00
9410;DHT22;4744;52.576;13.568;2023-04-08T16:08:34;13.80;1.00
9410;DHT22;4744;52.576;13.568;2023-04-08T16:11:02;13.80;1.00